File list

From Nuclear Physics Group Documentation Pages
Jump to: navigation, search

This special page shows all uploaded files.

File list
Items per page:
Search for media name:
Username:
Include old versions of images

descDate Name Thumbnail Size User Description Versions
15:35, 23 April 2018 04-12 pressure shells.jpg (file) 552 KB Nathaly   1
15:32, 23 April 2018 04-12 fridge TET.jpg (file) 1.14 MB Nathaly   1
15:31, 23 April 2018 04-12-2018 targetflowT.jpg (file) 437 KB Nathaly   1
15:30, 23 April 2018 04-12-2018 targetgoodT.jpg (file) 404 KB Nathaly   1
15:29, 23 April 2018 04-12 targetT.jpg (file) 697 KB Nathaly   1
15:27, 23 April 2018 04-12-2018 targetT.png (file)
Error creating thumbnail: Invalid thumbnail parameters
396 KB Nathaly   3
15:25, 23 April 2018 04-12 fridge TET.png (file) 858 KB Nathaly   1
15:23, 23 April 2018 04-12 fridge 1KT.png (file) 749 KB Nathaly   2
15:21, 23 April 2018 04-12 fridge coolingT.png (file) 655 KB Nathaly   3
15:04, 23 April 2018 04-12 fridgeT.png (file) 962 KB Nathaly   1
15:00, 23 April 2018 04-12-2018 magnetT.jpg (file) 771 KB Nathaly   1
14:56, 23 April 2018 04-12-2018 magnetT.png (file)
Error creating thumbnail: Invalid thumbnail parameters
911 KB Nathaly   2
02:02, 19 April 2018 04-10-2018 magnet precool pressure shells.png (file) 97 KB Nathaly   4
02:02, 19 April 2018 04-10-2018 magnet precool targetT.png (file) 191 KB Nathaly   2
02:01, 19 April 2018 04-10-2018 magnet precool fridgeT.png (file) 353 KB Nathaly   2
01:59, 19 April 2018 04-10-2018 magnet precool magnetT.png (file) 138 KB Nathaly   4
01:21, 19 April 2018 04-10-2018 magnet precool magnetT.pdf (file) 18 KB Nathaly   1
01:05, 28 March 2018 03-15-08-magnet temperatures.png (file) 89 KB Nathaly   1
01:04, 28 March 2018 03-15-08-target temperature.png (file) 146 KB Nathaly   1
20:05, 27 March 2018 03-15-08-fridge temperature.png (file) 154 KB Nathaly   1
20:02, 27 March 2018 03-15-08-thermometry.png (file) 341 KB Nathaly   1
15:38, 27 January 2017 ZeroAdjust.jpg (file) 157 KB Rbziel Zero Adjustment knob on the LN2 E5031 Hockey Puck 1
15:37, 27 January 2017 LN2Cable.jpg (file) 276 KB Rbziel LN2 E5031 cable that plugs into the back of the level meter analog read-out. 1
15:36, 27 January 2017 LN2Cable 2.jpg (file) 181 KB Rbziel Cable for LN2 E5031 sensor. Connects to the hockey puck. 1
15:35, 27 January 2017 HockeyPuck.jpg (file) 181 KB Rbziel LN2 Hockey Puck 1
15:33, 27 January 2017 BackofLevelMeters.jpg (file) 279 KB Rbziel Back of LN2 and LHe liquid level meters. 1
15:29, 27 January 2017 FrontofLevelMeters.jpg (file) 233 KB Rbziel LN2 and LHe liquid level read-out electronic front end modules. 1
15:17, 11 January 2017 UNO-DUO004B pump.jpeg (file) 214 KB Nathaly   1
14:40, 11 January 2017 G-100D pump.jpeg (file) 179 KB Nathaly   1
22:38, 10 January 2017 G-100D pump manual.pdf (file) 1.83 MB Nathaly   1
17:07, 9 January 2017 Dnp-oven-controls.jpg (file) 1.4 MB Elong   1
17:07, 9 January 2017 Dnp-oven.jpg (file) 1.01 MB Elong   1
17:33, 5 October 2015 2015-10-05-flow.png (file) 122 KB Elong   1
17:15, 5 October 2015 2015-10-01-temps-zoom.png (file) 285 KB Elong   3
17:12, 5 October 2015 2015-10-01-temps.png (file) 226 KB Elong   2
15:26, 2 October 2015 2015-10-02-ccs1.png (file) 129 KB Elong   2
21:08, 1 October 2015 2015-10-01-fridge-schematic.png (file) 294 KB Elong   1
21:04, 1 October 2015 2015-10-01-vappres-zoom.png (file) 68 KB Elong   1
21:03, 1 October 2015 2015-10-01-vappres.png (file) 55 KB Elong   1
21:39, 4 September 2015 Incident.png (file) 70 KB Maurik http://imgs.xkcd.com/comics/incident.png 1
16:55, 25 August 2015 2015-08-20-temps.png (file) 152 KB Elong   1
16:53, 25 August 2015 2015-08-20-ccs-res.png (file) 32 KB Elong   1
16:52, 25 August 2015 2015-08-20-vappresp.png (file) 173 KB Elong   1
16:51, 25 August 2015 2015-08-20-ab-res.png (file) 46 KB Elong   1
16:47, 25 August 2015 2015-08-04-tempflow.png (file) 55 KB Elong   1
16:41, 25 August 2015 2015-08-04-pillr.png (file) 37 KB Elong   1
16:41, 25 August 2015 2015-08-04-flow.png (file) 33 KB Elong   1
16:40, 25 August 2015 2015-08-04-vappresp.png (file) 43 KB Elong   1
16:40, 25 August 2015 2015-08-04-ab1r.png (file) 44 KB Elong   1
16:39, 25 August 2015 2015-08-04-ccsr.png (file) 41 KB Elong   1

First page
First page
Previous page
Previous page
Last page
Last page